• Join FlightAware (Why Join?)
  • Login
  • US Flag 
11:04AM EST


 

Airport Tracker/Info


-or-


 

Live Flight TrackerFlight Track Log ✈ N818RF ✈ 24-Jun-2013 ✈ LYPG / TGD - KTEB

Flight Track Log - Related Links

Times and Time Zones

All times are in EDT time to prevent confusion due to time zone crossing. See the N818RF flight status page for this flight to view local times or setup timezone preferences in your user account.

Time Position Orientation Groundspeed Altitude Reporting Facility
EDT Latitude Longitude Course Direction KTS MPH feet Rate Location/Type
12:00PM 51.9502 -16.7027 304° West  Level Estimated
12:01PM 51.9660 -16.9041 277° West  Level Estimated
12:02PM 51.9814 -17.1056 277° West  Level Estimated
12:03PM 51.9965 -17.3072 277° West  Level Estimated
12:04PM 52.0112 -17.5086 277° West  Level Estimated
12:05PM 52.0256 -17.7102 277° West  Level Estimated
12:06PM 52.0396 -17.9119 277° West  Level Estimated
12:07PM 52.0533 -18.1137 276° West  Level Estimated
12:08PM 52.0666 -18.3157 276° West  Level Estimated
12:09PM 52.0796 -18.5178 276° West  Level Estimated
12:10PM 52.0923 -18.7199 276° West  Level Estimated
12:11PM 52.1046 -18.9223 276° West  Level Estimated
12:12PM 52.1165 -19.1247 276° West  Level Estimated
12:13PM 52.1281 -19.3272 275° West  Level Estimated
12:14PM 52.1394 -19.5298 275° West  Level Estimated
12:15PM 52.1503 -19.7325 275° West  Level Estimated
12:16PM 52.1609 -19.9353 275° West  Level Estimated
12:17PM 52.1711 -20.1383 275° West  Level Estimated
12:18PM 52.1810 -20.3413 275° West  Level Estimated
12:19PM 52.1905 -20.5444 274° West  Level Estimated
12:20PM 52.1996 -20.7475 274° West  Level Estimated
12:21PM 52.2085 -20.9508 274° West  Level Estimated
12:22PM 52.2169 -21.1542 274° West  Level Estimated
12:23PM 52.2251 -21.3576 274° West  Level Estimated
12:24PM 52.2328 -21.5611 274° West  Level Estimated
12:25PM 52.2402 -21.7646 273° West  Level Estimated
12:25PM 58.0000 -20.0000 285° West 455 524 43,000  Level ETMS Enhanced Traffic Management System
12:26PM 52.2473 -21.9683 273° West  Level Estimated
12:27PM 52.2540 -22.1719 273° West  Level Estimated
12:28PM 52.2604 -22.3757 273° West  Level Estimated
12:29PM 52.2664 -22.5795 273° West  Level Estimated
12:30PM 52.2721 -22.7834 273° West  Level Estimated
12:31PM 58.2498 -21.8577 283° West 455 524 43,000  Level FlightAware Transoceanic
12:32PM 58.2791 -22.0918 283° West 455 524 43,000  Level FlightAware Transoceanic
12:33PM 58.3080 -22.3262 283° West 455 524 43,000  Level FlightAware Transoceanic
12:34PM 58.3365 -22.5609 283° West 455 524 43,000  Level FlightAware Transoceanic
12:35PM 58.3645 -22.7961 283° West 455 524 43,000  Level FlightAware Transoceanic
12:36PM 58.3921 -23.0316 282° West 455 524 43,000  Level FlightAware Transoceanic
12:37PM 58.4193 -23.2675 282° West 455 524 43,000  Level FlightAware Transoceanic
12:38PM 58.4460 -23.5038 282° West 455 524 43,000  Level FlightAware Transoceanic
12:39PM 58.4723 -23.7404 282° West 455 524 43,000  Level FlightAware Transoceanic
12:40PM 58.4982 -23.9774 282° West 455 524 43,000  Level FlightAware Transoceanic
12:41PM 58.5236 -24.2147 281° West 455 524 43,000  Level FlightAware Transoceanic
12:42PM 58.5486 -24.4523 281° West 455 524 43,000  Level FlightAware Transoceanic
12:43PM 58.5731 -24.6903 281° West 455 524 43,000  Level FlightAware Transoceanic
12:44PM 58.5972 -24.9286 281° West 455 524 43,000  Level FlightAware Transoceanic
12:45PM 58.6209 -25.1673 281° West 455 524 43,000  Level FlightAware Transoceanic
12:46PM 58.6441 -25.4062 280° West 455 524 43,000  Level FlightAware Transoceanic
12:47PM 58.6669 -25.6455 280° West 455 524 43,000  Level FlightAware Transoceanic
12:48PM 58.6892 -25.8851 280° West 455 524 43,000  Level FlightAware Transoceanic
12:49PM 58.7111 -26.1250 280° West 455 524 43,000  Level FlightAware Transoceanic
12:50PM 58.7325 -26.3652 280° West 455 524 43,000  Level FlightAware Transoceanic
12:51PM 58.7535 -26.6057 279° West 455 524 43,000  Level FlightAware Transoceanic
12:52PM 58.7741 -26.8464 279° West 455 524 43,000  Level FlightAware Transoceanic
12:53PM 58.7942 -27.0875 279° West 455 524 43,000  Level FlightAware Transoceanic
12:54PM 58.8138 -27.3288 279° West 455 524 43,000  Level FlightAware Transoceanic
12:55PM 58.8330 -27.5704 279° West 455 524 43,000  Level FlightAware Transoceanic
12:56PM 58.8518 -27.8123 278° West 455 524 43,000  Level FlightAware Transoceanic
12:57PM 58.8700 -28.0544 278° West 455 524 43,000  Level FlightAware Transoceanic
12:58PM 58.8879 -28.2968 278° West 455 524 43,000  Level FlightAware Transoceanic
12:59PM 58.9053 -28.5394 278° West 455 524 43,000  Level FlightAware Transoceanic
01:00PM 58.9222 -28.7823 278° West 455 524 43,000  Level FlightAware Transoceanic
01:01PM 58.9387 -29.0254 277° West 455 524 43,000  Level FlightAware Transoceanic
01:02PM 58.9547 -29.2687 277° West 455 524 43,000  Level FlightAware Transoceanic
01:03PM 58.9702 -29.5123 277° West 455 524 43,000  Level FlightAware Transoceanic
01:04PM 58.9854 -29.7560 277° West 455 524 43,000 240 Level FlightAware Transoceanic
01:05PM 58.9998 -29.9968 277° West  Level FlightAware Approximate
01:06PM 59.0139 -30.2378 277° West  Level FlightAware Approximate
01:07PM 59.0083 -30.2355 274° West  Level FlightAware Approximate
01:07PM 59.0000 -30.0000 274° West 463 533 44,000  Level ETMS Enhanced Traffic Management System
01:08PM 59.0163 -30.4776 274° West  Level FlightAware Approximate
01:09PM 59.0239 -30.7198 274° West  Level FlightAware Approximate
01:10PM 59.0311 -30.9620 273° West  Level FlightAware Approximate
01:11PM 59.0378 -31.2044 273° West  Level FlightAware Approximate
01:12PM 59.0440 -31.4469 273° West  Level FlightAware Approximate
01:13PM 59.0672 -32.2464 272° West 463 533 44,000  Level FlightAware Transoceanic
01:14PM 59.0722 -32.4965 272° West 463 533 44,000  Level FlightAware Transoceanic
01:15PM 59.0768 -32.7466 272° West 463 533 44,000  Level FlightAware Transoceanic
01:16PM 59.0809 -32.9969 272° West 463 533 44,000  Level FlightAware Transoceanic
01:17PM 59.0845 -33.2471 272° West 463 533 44,000  Level FlightAware Transoceanic
01:18PM 59.0877 -33.4975 271° West 463 533 44,000  Level FlightAware Transoceanic
01:19PM 59.0903 -33.7478 271° West 463 533 44,000  Level FlightAware Transoceanic
01:20PM 59.0925 -33.9982 271° West 463 533 44,000  Level FlightAware Transoceanic
01:21PM 59.0942 -34.2486 271° West 463 533 44,000  Level FlightAware Transoceanic
01:22PM 59.0954 -34.4991 270° West 463 533 44,000  Level FlightAware Transoceanic
01:23PM 59.0961 -34.7495 270° West 463 533 44,000  Level FlightAware Transoceanic
01:24PM 59.0964 -35.0000 270° West 463 533 44,000  Level FlightAware Transoceanic
01:25PM 59.0961 -35.2505 270° West 463 533 44,000  Level FlightAware Transoceanic
01:26PM 59.0954 -35.5009 270° West 463 533 44,000  Level FlightAware Transoceanic
01:27PM 59.0942 -35.7514 269° West 463 533 44,000  Level FlightAware Transoceanic
01:28PM 59.0925 -36.0018 269° West 463 533 44,000  Level FlightAware Transoceanic
01:29PM 59.0903 -36.2522 269° West 463 533 44,000  Level FlightAware Transoceanic
01:30PM 59.0877 -36.5025 269° West 463 533 44,000  Level FlightAware Transoceanic
01:31PM 59.0845 -36.7529 268° West 463 533 44,000  Level FlightAware Transoceanic
01:32PM 59.0809 -37.0031 268° West 463 533 44,000  Level FlightAware Transoceanic
01:33PM 59.0768 -37.2534 268° West 463 533 44,000  Level FlightAware Transoceanic
01:34PM 59.0722 -37.5035 268° West 463 533 44,000  Level FlightAware Transoceanic
01:35PM 59.0672 -37.7536 268° West 463 533 44,000  Level FlightAware Transoceanic
01:36PM 59.0616 -38.0036 267° West 463 533 44,000  Level FlightAware Transoceanic
01:37PM 59.0556 -38.2535 267° West 463 533 44,000  Level FlightAware Transoceanic
01:38PM 59.0491 -38.5033 267° West 463 533 44,000  Level FlightAware Transoceanic
01:39PM 59.0421 -38.7531 267° West 463 533 44,000  Level FlightAware Transoceanic
01:40PM 59.0346 -39.0027 267° West 463 533 44,000  Level FlightAware Transoceanic
01:41PM 59.0267 -39.2522 266° West 463 533 44,000  Level FlightAware Transoceanic
01:42PM 59.0183 -39.5016 266° West 463 533 44,000  Level FlightAware Transoceanic
01:43PM 59.0094 -39.7509 266° West 463 533 44,000 480 Level FlightAware Transoceanic
01:44PM 59.0003 -39.9927 266° West  Level FlightAware Approximate
01:44PM 59.0000 -40.0000 254° West 452 520 45,000  Level ETMS Enhanced Traffic Management System
01:45PM 58.9908 -40.2345 266° West  Level FlightAware Approximate
01:46PM 58.9660 -40.2180 253° West  Level FlightAware Approximate
01:47PM 58.9295 -40.4496 253° West  Level FlightAware Approximate
01:48PM 58.8926 -40.6806 253° West  Level FlightAware Approximate
01:49PM 58.8552 -40.9111 253° West  Level FlightAware Approximate
01:50PM 58.7415 -41.6272 252° West 452 520 45,000  Level FlightAware Transoceanic
01:51PM 58.7029 -41.8577 252° West 452 520 45,000  Level FlightAware Transoceanic
01:52PM 58.6639 -42.0876 252° West 452 520 45,000  Level FlightAware Transoceanic
01:53PM 58.6245 -42.3171 252° West 452 520 45,000  Level FlightAware Transoceanic
01:54PM 58.5847 -42.5460 251° West 452 520 45,000  Level FlightAware Transoceanic
01:55PM 58.5444 -42.7743 251° West 452 520 45,000  Level FlightAware Transoceanic
01:56PM 58.5038 -43.0022 251° West 452 520 45,000  Level FlightAware Transoceanic
01:57PM 58.4628 -43.2295 251° West 452 520 45,000  Level FlightAware Transoceanic
01:58PM 58.4214 -43.4563 251° West 452 520 45,000  Level FlightAware Transoceanic
01:59PM 58.3795 -43.6826 250° West 452 520 45,000  Level FlightAware Transoceanic
02:00PM 58.3373 -43.9083 250° West 452 520 45,000  Level FlightAware Transoceanic
02:01PM 58.2947 -44.1335 250° West 452 520 45,000  Level FlightAware Transoceanic
02:02PM 58.2517 -44.3581 250° West 452 520 45,000  Level FlightAware Transoceanic
02:03PM 58.2082 -44.5822 250° West 452 520 45,000  Level FlightAware Transoceanic
02:04PM 58.1645 -44.8058 250° West 452 520 45,000  Level FlightAware Transoceanic
02:05PM 58.1203 -45.0287 249° West 452 520 45,000  Level FlightAware Transoceanic
02:06PM 58.0757 -45.2512 249° West 452 520 45,000  Level FlightAware Transoceanic
02:07PM 58.0307 -45.4730 249° West 452 520 45,000  Level FlightAware Transoceanic
02:08PM 57.9854 -45.6944 249° West 452 520 45,000  Level FlightAware Transoceanic
02:09PM 57.9396 -45.9151 249° West 452 520 45,000  Level FlightAware Transoceanic
02:10PM 57.8935 -46.1353 248° West 452 520 45,000  Level FlightAware Transoceanic
02:11PM 57.8470 -46.3549 248° West 452 520 45,000  Level FlightAware Transoceanic
02:12PM 57.8001 -46.5740 248° West 452 520 45,000  Level FlightAware Transoceanic
02:13PM 57.7529 -46.7925 248° West 452 520 45,000  Level FlightAware Transoceanic
02:14PM 57.7052 -47.0104 248° West 452 520 45,000  Level FlightAware Transoceanic
02:15PM 57.6572 -47.2277 247° West 452 520 45,000  Level FlightAware Transoceanic
02:16PM 57.6089 -47.4445 247° West 452 520 45,000  Level FlightAware Transoceanic
02:17PM 57.5601 -47.6606 247° West 452 520 45,000  Level FlightAware Transoceanic
02:18PM 57.5110 -47.8762 247° West 452 520 45,000  Level FlightAware Transoceanic
02:19PM 57.4615 -48.0913 247° West 452 520 45,000  Level FlightAware Transoceanic
02:20PM 57.4117 -48.3057 247° West 452 520 45,000  Level FlightAware Transoceanic
02:21PM 57.3615 -48.5196 246° West 452 520 45,000  Level FlightAware Transoceanic
02:22PM 57.3109 -48.7328 246° West 452 520 45,000  Level FlightAware Transoceanic
02:23PM 57.2600 -48.9455 246° West 452 520 45,000  Level FlightAware Transoceanic
02:24PM 57.2087 -49.1576 246° West 452 520 45,000  Level FlightAware Transoceanic
02:25PM 57.1571 -49.3691 246° West 452 520 45,000  Level FlightAware Transoceanic
02:26PM 57.1050 -49.5800 245° Southwest 452 520 45,000  Level FlightAware Transoceanic
02:27PM 57.0527 -49.7903 245° Southwest 452 520 45,000  Level FlightAware Transoceanic
02:28PM 57.0004 -49.9986 245° Southwest  Level FlightAware Approximate
02:29PM 56.9478 -50.2065 245° Southwest  Level FlightAware Approximate
02:29PM 57.0000 -50.0000 252° West 454 522 45,000  Level ETMS Enhanced Traffic Management System
02:30PM 56.9185 -50.1694 229° Southwest  Level FlightAware Approximate
02:31PM 56.8356 -50.3404 229° Southwest  Level FlightAware Approximate
02:32PM 56.7525 -50.5106 228° Southwest  Level FlightAware Approximate
02:33PM 56.6692 -50.6801 228° Southwest  Level FlightAware Approximate
02:34PM 56.5856 -50.8488 228° Southwest  Level FlightAware Approximate
02:35PM 56.6773 -51.7504 251° West 454 522 45,000  Level FlightAware Transoceanic
02:36PM 56.6352 -51.9671 250° West 454 522 45,000  Level FlightAware Transoceanic
02:37PM 56.5928 -52.1833 250° West 454 522 45,000  Level FlightAware Transoceanic
02:38PM 56.5500 -52.3989 250° West 454 522 45,000  Level FlightAware Transoceanic
02:39PM 56.5068 -52.6141 250° West 454 522 45,000  Level FlightAware Transoceanic
02:40PM 56.4632 -52.8288 250° West 454 522 45,000  Level FlightAware Transoceanic
02:41PM 56.4193 -53.0430 250° West 454 522 45,000  Level FlightAware Transoceanic
02:42PM 56.3750 -53.2568 249° West 454 522 45,000  Level FlightAware Transoceanic
02:43PM 56.3304 -53.4700 249° West 454 522 45,000  Level FlightAware Transoceanic
02:44PM 56.2854 -53.6827 249° West 454 522 45,000  Level FlightAware Transoceanic
02:45PM 56.2400 -53.8949 249° West 454 522 45,000  Level FlightAware Transoceanic
02:46PM 56.1943 -54.1066 249° West 454 522 45,000  Level FlightAware Transoceanic
02:47PM 56.1482 -54.3178 249° West 454 522 45,000  Level FlightAware Transoceanic
02:48PM 56.1017 -54.5285 248° West 454 522 45,000  Level FlightAware Transoceanic
02:49PM 56.0549 -54.7387 248° West 454 522 45,000  Level FlightAware Transoceanic
02:50PM 56.0077 -54.9484 248° West 454 522 45,000  Level FlightAware Transoceanic
02:51PM 55.9602 -55.1576 248° West 454 522 45,000  Level FlightAware Transoceanic
02:52PM 55.9123 -55.3662 248° West 454 522 45,000  Level FlightAware Transoceanic
02:53PM 55.8641 -55.5743 247° West 454 522 45,000  Level FlightAware Transoceanic
02:54PM 55.8155 -55.7820 247° West 454 522 45,000  Level FlightAware Transoceanic
02:54PM 55.8000 -55.7833 240° Southwest 460 529 45,000  Level Moncton Center
02:55PM 55.7665 -55.9890 247° West 454 522 45,000  Level FlightAware Transoceanic
02:55PM 55.7500 -55.9667 244° Southwest 460 529 45,000  Level Moncton Center
02:56PM 55.7172 -56.1956 247° West 454 522 45,000  Level FlightAware Transoceanic
02:56PM 55.7000 -56.1833 248° West 460 529 45,000  Level Moncton Center
02:57PM 55.6676 -56.4017 247° West 454 522 45,000  Level FlightAware Transoceanic
02:57PM 55.5833 -56.3333 216° Southwest 470 541 45,000  Level Moncton Center
02:58PM 55.6176 -56.6072 247° West 454 522 45,000  Level FlightAware Transoceanic
02:58PM 55.4833 -56.4667 217° Southwest 480 552 45,000  Level Moncton Center
02:59PM 55.5673 -56.8122 246° West 454 522 45,000  Level FlightAware Transoceanic
02:59PM 55.4000 -56.6000 222° Southwest 480 552 45,000  Level Gander Center
03:00PM 55.5044 -57.0040 240° Southwest  Level FlightAware Approximate
03:00PM 55.3333 -56.6667 210° Southwest 480 552 45,000  Level Gander Center
03:00PM 55.2667 -56.7667 221° Southwest 480 552 45,000  Level Moncton Center
03:01PM 55.1667 -56.8833 214° Southwest 480 552 45,000  Level Moncton Center
03:02PM 55.0667 -57.0500 224° Southwest 480 552 45,000  Level Moncton Center
03:03PM 54.9500 -57.1833 213° Southwest 470 541 45,000  Level Moncton Center
03:04PM 54.8667 -57.3167 223° Southwest 470 541 45,000  Level Moncton Center
03:05PM 54.7500 -57.4500 213° Southwest 470 541 45,000  Level Moncton Center
03:06PM 54.6333 -57.5500 206° Southwest 470 541 45,000  Level Moncton Center
03:07PM 54.5333 -57.7167 224° Southwest 470 541 45,000  Level Moncton Center
03:08PM 54.4333 -57.8500 218° Southwest 480 552 45,000  Level Moncton Center
03:09PM 54.3167 -57.9833 214° Southwest 480 552 45,000  Level Moncton Center
03:10PM 54.2167 -58.1000 214° Southwest 480 552 45,000  Level Moncton Center
03:11PM 54.1000 -58.2333 214° Southwest 480 552 45,000  Level Moncton Center
03:12PM 54.0000 -58.3667 218° Southwest 480 552 45,000  Level Moncton Center
03:13PM 53.8833 -58.5000 214° Southwest 480 552 45,000  Level Moncton Center
03:14PM 53.7667 -58.6167 211° Southwest 470 541 45,000  Level Moncton Center
03:15PM 53.6833 -58.7500 223° Southwest 470 541 45,000  Level Moncton Center
03:16PM 53.5667 -58.8833 214° Southwest 470 541 45,000  Level Moncton Center
03:17PM 53.4500 -59.0000 211° Southwest 470 541 45,000  Level Moncton Center
03:18PM 53.3667 -59.1333 224° Southwest 470 541 45,000  Level Moncton Center
03:19PM 53.2333 -59.2500 208° Southwest 470 541 45,000  Level Moncton Center
03:20PM 53.1500 -59.3667 220° Southwest 470 541 45,000  Level Gander Center
03:21PM 53.0500 -59.5000 219° Southwest 470 541 45,000  Level Gander Center
03:22PM 52.9333 -59.6167 211° Southwest 470 541 45,000  Level Gander Center
03:23PM 52.8333 -59.7333 215° Southwest 480 552 45,000  Level Gander Center
03:24PM 52.7167 -59.8667 215° Southwest 480 552 45,000  Level Gander Center
03:25PM 52.6000 -59.9833 211° Southwest 480 552 45,000  Level Gander Center
03:26PM 52.5000 -60.1000 215° Southwest 480 552 45,000  Level Gander Center
03:27PM 52.3833 -60.2333 215° Southwest 480 552 45,000  Level Gander Center
03:28PM 52.3000 -60.3167 211° Southwest 480 552 45,000  Level Gander Center
03:28PM 52.2500 -60.3833 219° Southwest 480 552 45,000  Level Moncton Center
03:29PM 52.1333 -60.5000 212° Southwest 480 552 45,000  Level Moncton Center
03:30PM 52.0333 -60.6167 216° Southwest 480 552 45,000  Level Moncton Center
03:31PM 51.9167 -60.7333 212° Southwest 480 552 45,000  Level Moncton Center
03:32PM 51.8167 -60.8500 216° Southwest 470 541 45,000  Level Moncton Center
03:33PM 51.7000 -60.9667 212° Southwest 470 541 45,000  Level Moncton Center
03:34PM 51.6000 -61.0667 212° Southwest 480 552 45,000  Level Gander Center
03:35PM 51.5000 -61.2000 220° Southwest 470 541 45,000  Level Gander Center
03:36PM 51.3833 -61.3167 212° Southwest 470 541 45,000  Level Gander Center
03:37PM 51.2500 -61.4500 212° Southwest 480 552 45,000  Level Moncton Center
03:38PM 51.1500 -61.5667 216° Southwest 480 552 45,000  Level Moncton Center
03:39PM 51.0333 -61.6833 212° Southwest 470 541 45,000  Level Moncton Center
03:40PM 50.9167 -61.8000 212° Southwest 470 541 45,000  Level Moncton Center
03:41PM 50.8000 -61.9000 208° Southwest 470 541 45,000  Level Moncton Center
03:42PM 50.7000 -62.0167 216° Southwest 470 541 45,000  Level Moncton Center
03:44PM 50.5000 -62.2333 215° Southwest 460 529 45,000  Level Moncton Center
03:45PM 50.3833 -62.3500 213° Southwest 470 541 45,000  Level Moncton Center
03:46PM 50.2667 -62.4667 213° Southwest 480 552 45,000  Level Moncton Center
03:47PM 50.1500 -62.5667 209° Southwest 480 552 45,000  Level Moncton Center
03:49PM 49.9845 -62.7224 211° Southwest  Level FlightAware Approximate
03:50PM 49.8167 -62.8833 211° Southwest 470 541 45,000  Level Gander Center
03:51PM 49.7167 -62.9833 213° Southwest 460 529 45,000  Level Gander Center
03:52PM 49.5833 -63.1000 210° Southwest 460 529 45,000  Level Moncton Center
03:53PM 49.4833 -63.2167 217° Southwest 450 518 45,000  Level Moncton Center
03:54PM 49.3833 -63.3167 213° Southwest 460 529 45,000  Level Moncton Center
03:55PM 49.2667 -63.4000 205° Southwest 450 518 45,000  Level Moncton Center
03:56PM 49.2277 -63.4236 211° Southwest  Level FlightAware Approximate
03:56PM 49.1667 -63.5000 213° Southwest 460 529 45,000  Level Moncton Center
03:57PM 49.0500 -63.6000 209° Southwest 450 518 45,000  Level Moncton Center
03:58PM 48.9500 -63.7167 217° Southwest 450 518 45,000  Level Moncton Center
03:59PM 48.8333 -63.8167 209° Southwest 460 529 45,000  Level Moncton Center
04:00PM 48.7167 -63.9167 209° Southwest 470 541 45,000  Level Moncton Center
04:01PM 48.6167 -64.0167 213° Southwest 460 529 45,000  Level Moncton Center
04:02PM 48.5000 -64.1167 210° Southwest 460 529 45,000  Level Moncton Center
04:03PM 48.4000 -64.2167 214° Southwest 460 529 45,000  Level Moncton Center
04:04PM 48.2833 -64.3167 210° Southwest 460 529 45,000  Level Moncton Center
04:05PM 48.1833 -64.4167 214° Southwest 460 529 45,000  Level Moncton Center
04:06PM 48.0667 -64.5167 210° Southwest 470 541 45,000  Level Moncton Center
04:07PM 47.9500 -64.6167 210° Southwest 470 541 45,000 120 Level Moncton Center
04:08PM 47.8500 -64.7167 214° Southwest 470 541 45,300 360 Climbing Moncton Center
04:09PM 47.7333 -64.8167 210° Southwest 470 541 45,800 420 Climbing Moncton Center
04:10PM 47.6167 -64.9167 210° Southwest 460 529 46,200 420 Climbing Moncton Center
04:11PM 47.5167 -65.0167 214° Southwest 450 518 46,700 300 Climbing Moncton Center
04:12PM 47.4000 -65.0833 201° Southwest 450 518 46,900 120 Climbing Moncton Center
04:13PM 47.2833 -65.1833 210° Southwest 460 529 47,000  Climbing Moncton Center
04:14PM 47.1833 -65.2833 214° Southwest 460 529 47,000  Level Moncton Center
04:15PM 47.0833 -65.3833 214° Southwest 460 529 47,000  Level Moncton Center
04:16PM 46.9667 -65.4833 210° Southwest 470 541 47,000  Level Moncton Center
04:17PM 46.8333 -65.5667 203° Southwest 470 541 47,000  Level Moncton Center
04:18PM 46.7167 -65.6667 210° Southwest 470 541 47,000  Level Moncton Center
04:19PM 46.6167 -65.7667 214° Southwest 470 541 47,000  Level Moncton Center
04:20PM 46.5000 -65.8500 206° Southwest 470 541 47,000  Level Moncton Center
04:21PM 46.3833 -65.9500 211° Southwest 470 541 47,000  Level Moncton Center
04:22PM 46.2667 -66.0500 211° Southwest 470 541 47,000  Level Moncton Center
04:23PM 46.1667 -66.1333 210° Southwest 470 541 47,000  Level Moncton Center
04:24PM 46.0333 -66.2500 211° Southwest 470 541 47,000  Level Moncton Center
04:25PM 45.9333 -66.3167 205° Southwest 480 552 47,000  Level Moncton Center
04:26PM 45.8000 -66.4167 208° Southwest 470 541 47,000  Level Moncton Center
04:27PM 45.6833 -66.5333 215° Southwest 470 541 47,000  Level Moncton Center
04:28PM 45.5833 -66.6167 210° Southwest 480 552 47,000  Level Moncton Center
04:29PM 45.4500 -66.7167 208° Southwest 480 552 47,000  Level Moncton Center
04:30PM 45.3500 -66.8000 210° Southwest 480 552 47,000  Level Moncton Center
04:31PM 45.2333 -66.8833 207° Southwest 480 552 47,000  Level Moncton Center
04:32PM 45.1167 -66.9833 211° Southwest 480 552 47,000  Level Moncton Center
04:33PM 44.9833 -67.0667 204° Southwest 480 552 47,000  Level Moncton Center
04:34PM 44.8833 -67.1833 220° Southwest 470 541 47,000  Level Moncton Center
04:35PM 44.8394 -67.2689 234° Southwest 468 539 47,000  Level Boston Center
04:36PM 44.7375 -67.4156 226° Southwest 474 545 47,000  Level Boston Center
04:37PM 44.6647 -67.5678 236° Southwest 474 545 47,000  Level Boston Center
04:38PM 44.5811 -67.7117 231° Southwest 479 551 47,000  Level Boston Center
04:39PM 44.4967 -67.8408 228° Southwest 466 536 47,000  Level Boston Center
04:40PM 44.4011 -67.9586 221° Southwest 461 531 47,000  Level Boston Center
04:41PM 44.3342 -68.0597 227° Southwest 461 531 47,000 -300 Level Boston Center
04:42PM 44.2358 -68.2147 229° Southwest 450 518 46,500 -1,020 Descending Boston Center
04:43PM 44.1528 -68.3394 227° Southwest 444 511 45,000 -1,260 Descending Boston Center
04:44PM 44.0739 -68.4661 229° Southwest 439 505 44,000 -900 Descending Boston Center
04:45PM 44.0064 -68.5661 227° Southwest 434 499 43,200 -900 Descending Boston Center
04:46PM 43.9172 -68.7044 228° Southwest 434 499 42,200 -1,020 Descending Boston Center
04:47PM 43.8317 -68.8336 227° Southwest 439 505 41,200 -960 Descending Boston Center
04:48PM 43.7519 -68.9561 228° Southwest 439 505 40,300 -900 Descending Boston Center
04:49PM 43.6722 -69.0728 227° Southwest 429 494 39,500 -840 Descending Boston Center
04:50PM 43.5922 -69.1919 227° Southwest 429 494 38,700 -900 Descending Boston Center
04:51PM 43.5103 -69.3136 227° Southwest 434 499 37,800 -960 Descending Boston Center
04:52PM 43.4281 -69.4381 228° Southwest 434 499 36,800 -1,020 Descending Boston Center
04:53PM 43.3378 -69.5794 229° Southwest 434 499 35,800 -840 Descending Boston Center
04:54PM 43.2553 -69.7003 227° Southwest 434 499 35,000 -840 Descending Boston Center
04:55PM 43.1506 -69.8503 226° Southwest 439 505 34,000 -1,080 Descending Boston Center
04:56PM 43.0678 -69.9758 228° Southwest 439 505 32,900 -1,020 Descending Boston Center
04:57PM 42.9808 -70.1042 227° Southwest 439 505 32,000 -900 Descending Boston Center
04:58PM 42.8936 -70.2294 226° Southwest 452 520 31,100 -780 Descending Boston Center
04:59PM 42.8267 -70.3225 226° Southwest 463 533 30,500 -1,020 Descending Boston Center
05:00PM 42.7131 -70.4903 227° Southwest 468 539 29,100 -1,200 Descending Boston Center
05:01PM 42.6233 -70.6172 226° Southwest 468 539 28,200 -900 Descending Boston Center
05:02PM 42.5439 -70.7294 226° Southwest 462 532 27,300 -780 Descending Boston Center
05:03PM 42.4519 -70.8614 227° Southwest 449 517 26,500 -900 Descending Boston Center
05:04PM 42.3664 -71.0153 233° Southwest 444 511 25,400 -1,140 Descending Boston Center
05:05PM 42.3392 -71.1761 257° West 419 482 24,300 -1,020 Descending Boston Center
05:06PM 42.3242 -71.3281 262° West 419 482 23,400 -780 Descending Boston Center
05:08PM 42.3086 -71.4717 262° West 408 470 22,700 -780 Descending Boston Center
05:09PM 42.2892 -71.6317 261° West 402 463 21,800 -1,320 Descending Boston Center
05:10PM 42.2714 -71.7750 261° West 397 457 19,800 -2,100 Descending Boston Center
05:11PM 42.2514 -71.9547 262° West 381 438 17,300 -1,920 Descending Boston Center
05:12PM 42.2372 -72.0811 261° West 381 438 16,000 -660 Descending Boston Center
05:13PM 42.2189 -72.2328 261° West 375 432 16,000  Level Boston Center
05:14PM 42.2044 -72.3561 261° West 375 432 16,000  Level Boston Center
05:15PM 42.1858 -72.5100 261° West 375 432 16,000  Level Boston Center
05:16PM 42.1711 -72.6361 261° West 375 432 16,000  Level Boston Center
05:17PM 42.1603 -72.7872 265° West 375 432 16,000  Level Boston Center
05:18PM 42.1492 -72.9244 264° West 375 432 16,000  Level Boston Center
05:19PM 42.1381 -73.0617 264° West 375 432 16,000  Level Boston Center
05:20PM 42.1019 -73.1900 249° West 364 419 16,000  Level Boston Center
05:21PM 42.0656 -73.3125 248° West 364 419 16,000  Level Boston Center
05:22PM 42.0106 -73.4208 236° Southwest 358 412 16,000  Level Boston Center
05:23PM 42.0364 -73.5639 284° West 309 356 16,000 -480 Level Boston Center
05:24PM 42.0603 -73.6706 287° West 320 368 15,100 -1,020 Descending Boston Center
05:25PM 42.0297 -73.7789 249° West 296 341 14,000 -1,020 Descending Boston Center
05:26PM 41.9769 -73.8475 224° Southwest 276 318 13,100 -1,020 Descending Boston Center
05:27PM 41.9156 -73.9300 225° Southwest 292 336 12,000 -1,020 Descending Boston Center
05:28PM 41.8581 -74.0094 226° Southwest 313 360 11,100 -1,020 Descending Boston Center
05:29PM 41.7881 -74.0939 222° Southwest 314 361 10,000 -1,080 Descending Boston Center
05:30PM 41.7286 -74.1619 221° Southwest 297 342 9,000 -900 Descending Boston Center
05:31PM 41.6819 -74.2136 220° Southwest 285 328 8,200 -1,020 Descending Boston Center
05:32PM 41.6142 -74.2867 219° Southwest 275 316 7,000 -600 Descending Boston Center
05:33PM 41.5653 -74.3406 220° Southwest 268 308 7,000  Level Boston Center
05:34PM 41.5058 -74.4111 222° Southwest 263 303 7,000  Level Boston Center
05:35PM 41.4547 -74.4647 218° Southwest 263 303 7,000  Level Boston Center
05:36PM 41.3667 -74.5333 210° Southwest 269 310 7,100 -180 Climbing New York TRACON
05:37PM 41.2833 -74.5333 180° South 273 314 6,700 -840 Descending New York TRACON
05:38PM 41.2167 -74.4833 151° Southeast 288 331 5,500 -900 Descending New York TRACON
05:39PM 41.1833 -74.4000 118° Southeast 281 323 5,000 -900 Descending New York TRACON
05:40PM 41.1500 -74.3167 118° Southeast 272 313 3,800 -900 Descending New York TRACON
05:41PM 41.1167 -74.2333 118° Southeast 235 270 3,300 -360 Descending New York TRACON
05:42PM 41.0833 -74.1667 124° Southeast 223 257 3,100 -480 Descending New York TRACON
05:43PM 41.0500 -74.1000 124° Southeast 227 261 2,400 -480 Descending New York TRACON
05:45PM 41.0000 -74.0500 143° Southeast 172 198 2,100 -180 Descending New York TRACON
05:45PM 40.9667 -74.0500 180° South 148 170 2,100 -360 Level New York TRACON
05:46PM 40.9333 -74.0500 180° South 147 169 1,500 -660 Descending New York TRACON
05:47PM 40.9000 -74.0500 180° South 117 135 800 -720 Descending New York TRACON
05:49PM 40.8500 -74.0500 152° Southeast  Level FlightAware Approximate